createdAt,value
2022-11-12T11:40:07.628Z,44.00
2022-11-12T11:42:55.726Z,51.45
2022-11-12T11:45:31.581Z,48.25
2022-11-12T11:48:08.108Z,56.30
2022-11-12T11:50:40.543Z,41.42
2022-11-12T11:53:23.122Z,46.38
2022-11-12T11:55:58.585Z,43.13
2022-11-12T11:59:03.064Z,35.35
2022-11-12T12:01:43.419Z,41.80
2022-11-12T12:04:41.202Z,47.30
2022-11-12T12:07:26.975Z,38.55
2022-11-12T12:10:09.060Z,37.10
2022-11-12T12:12:51.134Z,37.42
2022-11-12T12:15:47.020Z,35.70
2022-11-12T12:18:25.227Z,35.90
2022-11-12T12:21:02.825Z,39.45
2022-11-12T12:23:36.704Z,32.67
2022-11-12T12:26:13.220Z,41.17
2022-11-12T12:28:47.442Z,35.25
2022-11-12T12:31:19.846Z,53.42
2022-11-12T12:33:54.295Z,63.83
2022-11-12T12:36:30.546Z,57.25
2022-11-12T12:39:14.951Z,50.00
2022-11-12T12:41:51.314Z,33.90
2022-11-12T12:44:22.208Z,30.35
2022-11-12T12:46:55.187Z,30.88
2022-11-12T12:49:30.727Z,38.28
2022-11-12T12:52:00.275Z,29.30
2022-11-12T12:54:56.337Z,33.40
2022-11-12T12:57:33.606Z,24.58
2022-11-12T13:00:29.203Z,25.80
2022-11-12T13:02:58.146Z,18.05
2022-11-12T13:05:31.088Z,17.92
2022-11-12T13:08:04.125Z,19.90
2022-11-12T13:10:51.658Z,20.38
2022-11-12T13:13:35.041Z,21.17
2022-11-12T13:16:05.623Z,20.80
2022-11-12T13:19:00.299Z,23.80
2022-11-12T13:21:30.070Z,17.65
2022-11-12T13:24:10.983Z,26.33
2022-11-12T13:26:52.154Z,30.55
2022-11-12T13:29:45.409Z,25.65
2022-11-12T13:32:38.672Z,25.40
2022-11-12T13:35:28.186Z,32.72
2022-11-12T13:38:01.967Z,34.00
2022-11-12T13:40:44.449Z,36.35
2022-11-12T13:43:36.297Z,30.70
2022-11-12T13:46:23.662Z,36.78
2022-11-12T13:49:00.271Z,31.98
2022-11-12T13:51:39.155Z,33.55
2022-11-12T13:54:31.377Z,30.73
2022-11-12T13:57:15.560Z,32.97
2022-11-12T13:59:44.674Z,35.40
2022-11-12T14:02:22.301Z,41.80
2022-11-12T14:04:52.975Z,24.67
2022-11-12T14:07:41.670Z,32.63
2022-11-12T14:10:20.539Z,11.07
2022-11-12T14:13:07.184Z,8.10
2022-11-12T14:15:53.021Z,12.63
2022-11-12T14:18:30.397Z,5.50
2022-11-12T14:21:06.619Z,8.90
2022-11-12T14:23:39.270Z,8.82
2022-11-12T14:26:08.034Z,9.90
2022-11-12T14:28:39.767Z,11.25
2022-11-12T14:31:14.309Z,6.63
2022-11-12T14:33:42.985Z,6.30
2022-11-12T14:36:16.874Z,6.63
2022-11-12T14:38:49.202Z,9.40
2022-11-12T14:41:22.054Z,11.02
2022-11-12T14:44:11.138Z,6.18
2022-11-12T14:46:47.397Z,8.45
2022-11-12T14:49:20.716Z,9.23
2022-11-12T14:51:54.970Z,6.10
2022-11-12T14:54:29.888Z,10.65
2022-11-12T14:57:02.017Z,9.30
2022-11-12T14:59:32.060Z,6.80
2022-11-12T15:07:33.763Z,7.63
2022-11-12T15:10:22.569Z,6.57
2022-11-12T15:12:51.281Z,7.80
2022-11-12T15:15:22.784Z,6.70
2022-11-12T15:17:58.751Z,7.82
2022-11-12T16:50:34.908Z,6.70
2022-11-12T17:57:37.318Z,9.82
2022-11-12T18:07:31.949Z,6.97
